sensor_id;sensor_type;location;lat;lon;timestamp;pressure;altitude;pressure_sealevel;temperature;humidity
9764;BME280;4921;43.214;27.936;2023-02-15T00:01:31;102246.00;;;7.92;56.51
9764;BME280;4921;43.214;27.936;2023-02-15T00:03:58;102237.94;;;7.96;56.40
9764;BME280;4921;43.214;27.936;2023-02-15T00:06:25;102231.16;;;7.92;55.71
9764;BME280;4921;43.214;27.936;2023-02-15T00:08:53;102238.75;;;7.98;55.76
9764;BME280;4921;43.214;27.936;2023-02-15T00:11:21;102248.31;;;7.99;56.15
9764;BME280;4921;43.214;27.936;2023-02-15T00:14:03;102246.34;;;8.04;56.02
9764;BME280;4921;43.214;27.936;2023-02-15T00:16:31;102242.09;;;8.02;55.79
9764;BME280;4921;43.214;27.936;2023-02-15T00:18:58;102244.16;;;7.94;56.16
9764;BME280;4921;43.214;27.936;2023-02-15T00:21:27;102242.56;;;7.91;56.19
9764;BME280;4921;43.214;27.936;2023-02-15T00:23:54;102244.50;;;7.86;56.72
9764;BME280;4921;43.214;27.936;2023-02-15T00:26:21;102238.22;;;7.90;57.23
9764;BME280;4921;43.214;27.936;2023-02-15T00:28:48;102243.19;;;7.96;56.28
9764;BME280;4921;43.214;27.936;2023-02-15T00:31:16;102244.59;;;7.85;56.71
9764;BME280;4921;43.214;27.936;2023-02-15T00:33:43;102248.97;;;7.84;57.57
9764;BME280;4921;43.214;27.936;2023-02-15T00:36:10;102240.38;;;7.81;57.63
9764;BME280;4921;43.214;27.936;2023-02-15T00:38:38;102235.78;;;7.86;57.52
9764;BME280;4921;43.214;27.936;2023-02-15T00:41:06;102237.44;;;7.88;57.73
9764;BME280;4921;43.214;27.936;2023-02-15T00:43:34;102237.09;;;7.96;57.31
9764;BME280;4921;43.214;27.936;2023-02-15T00:46:02;102230.28;;;7.92;56.90
9764;BME280;4921;43.214;27.936;2023-02-15T00:48:31;102205.59;;;7.57;58.02
9764;BME280;4921;43.214;27.936;2023-02-15T00:50:59;102222.09;;;7.79;58.03
9764;BME280;4921;43.214;27.936;2023-02-15T00:53:27;102233.56;;;7.97;57.28
9764;BME280;4921;43.214;27.936;2023-02-15T00:55:55;102236.53;;;7.89;56.57
9764;BME280;4921;43.214;27.936;2023-02-15T00:58:22;102222.44;;;7.72;57.81
9764;BME280;4921;43.214;27.936;2023-02-15T01:00:50;102220.47;;;7.77;57.65
9764;BME280;4921;43.214;27.936;2023-02-15T01:03:19;102224.28;;;7.69;57.90
9764;BME280;4921;43.214;27.936;2023-02-15T01:05:48;102225.25;;;7.67;57.97
9764;BME280;4921;43.214;27.936;2023-02-15T01:08:17;102225.31;;;7.86;57.35
9764;BME280;4921;43.214;27.936;2023-02-15T01:10:44;102227.69;;;7.72;57.13
9764;BME280;4921;43.214;27.936;2023-02-15T01:13:13;102220.09;;;7.65;58.03
9764;BME280;4921;43.214;27.936;2023-02-15T01:15:41;102228.59;;;7.70;57.77
9764;BME280;4921;43.214;27.936;2023-02-15T01:18:08;102229.44;;;7.71;57.38
9764;BME280;4921;43.214;27.936;2023-02-15T01:20:37;102233.03;;;7.68;58.01
9764;BME280;4921;43.214;27.936;2023-02-15T01:23:09;102235.13;;;7.60;58.14
9764;BME280;4921;43.214;27.936;2023-02-15T01:25:36;102238.19;;;7.70;57.83
9764;BME280;4921;43.214;27.936;2023-02-15T01:28:04;102246.13;;;7.68;57.94
9764;BME280;4921;43.214;27.936;2023-02-15T01:30:31;102231.38;;;7.66;58.15
9764;BME280;4921;43.214;27.936;2023-02-15T01:32:58;102231.38;;;7.66;58.54
9764;BME280;4921;43.214;27.936;2023-02-15T01:35:26;102229.75;;;7.63;58.20
9764;BME280;4921;43.214;27.936;2023-02-15T01:37:56;102216.53;;;7.66;58.36
9764;BME280;4921;43.214;27.936;2023-02-15T01:40:25;102229.28;;;7.54;59.10
9764;BME280;4921;43.214;27.936;2023-02-15T01:42:53;102229.78;;;7.42;59.23
9764;BME280;4921;43.214;27.936;2023-02-15T01:45:23;102226.63;;;7.34;59.78
9764;BME280;4921;43.214;27.936;2023-02-15T01:47:56;102222.13;;;7.37;59.55
9764;BME280;4921;43.214;27.936;2023-02-15T01:50:28;102228.00;;;7.42;59.30
9764;BME280;4921;43.214;27.936;2023-02-15T01:53:03;102219.63;;;7.34;59.93
9764;BME280;4921;43.214;27.936;2023-02-15T01:55:34;102230.97;;;7.35;59.69
9764;BME280;4921;43.214;27.936;2023-02-15T01:58:03;102228.72;;;7.26;59.87
9764;BME280;4921;43.214;27.936;2023-02-15T02:00:30;102217.91;;;7.33;59.64
9764;BME280;4921;43.214;27.936;2023-02-15T02:02:58;102221.03;;;7.43;59.89
9764;BME280;4921;43.214;27.936;2023-02-15T02:05:25;102228.94;;;7.41;59.39
9764;BME280;4921;43.214;27.936;2023-02-15T02:07:56;102204.13;;;7.30;59.27
9764;BME280;4921;43.214;27.936;2023-02-15T02:10:24;102231.69;;;7.38;59.70
9764;BME280;4921;43.214;27.936;2023-02-15T02:12:55;102229.38;;;7.31;59.91
9764;BME280;4921;43.214;27.936;2023-02-15T02:15:28;102231.94;;;7.32;59.80
9764;BME280;4921;43.214;27.936;2023-02-15T02:18:08;102232.81;;;7.31;60.14
9764;BME280;4921;43.214;27.936;2023-02-15T02:24:27;102238.06;;;7.31;60.08
9764;BME280;4921;43.214;27.936;2023-02-15T02:27:19;102241.19;;;7.19;60.44
9764;BME280;4921;43.214;27.936;2023-02-15T02:33:37;102234.84;;;7.03;61.12
9764;BME280;4921;43.214;27.936;2023-02-15T02:36:15;102243.59;;;7.02;61.37
9764;BME280;4921;43.214;27.936;2023-02-15T02:38:54;102241.28;;;6.94;61.64
9764;BME280;4921;43.214;27.936;2023-02-15T02:41:31;102234.06;;;6.78;61.86
9764;BME280;4921;43.214;27.936;2023-02-15T02:44:06;102251.00;;;6.91;62.17
9764;BME280;4921;43.214;27.936;2023-02-15T02:46:41;102250.22;;;6.89;62.03
9764;BME280;4921;43.214;27.936;2023-02-15T02:49:12;102255.38;;;6.90;62.21
9764;BME280;4921;43.214;27.936;2023-02-15T02:51:39;102259.56;;;6.94;62.29
9764;BME280;4921;43.214;27.936;2023-02-15T02:54:07;102260.56;;;6.92;62.21
9764;BME280;4921;43.214;27.936;2023-02-15T02:56:37;102263.63;;;6.80;62.98
9764;BME280;4921;43.214;27.936;2023-02-15T02:59:08;102261.94;;;6.79;62.90
9764;BME280;4921;43.214;27.936;2023-02-15T03:01:40;102259.78;;;6.90;62.90
9764;BME280;4921;43.214;27.936;2023-02-15T03:04:10;102267.56;;;6.91;62.54
9764;BME280;4921;43.214;27.936;2023-02-15T03:06:45;102260.91;;;6.83;62.81
9764;BME280;4921;43.214;27.936;2023-02-15T03:09:15;102266.38;;;6.77;62.89
9764;BME280;4921;43.214;27.936;2023-02-15T03:11:46;102267.72;;;6.87;63.11
9764;BME280;4921;43.214;27.936;2023-02-15T03:14:14;102258.13;;;6.87;62.92
9764;BME280;4921;43.214;27.936;2023-02-15T03:16:43;102264.88;;;6.93;63.29
9764;BME280;4921;43.214;27.936;2023-02-15T03:19:15;102268.59;;;6.87;63.48
9764;BME280;4921;43.214;27.936;2023-02-15T03:21:47;102278.09;;;6.90;63.13
9764;BME280;4921;43.214;27.936;2023-02-15T03:24:24;102258.63;;;6.74;63.56
9764;BME280;4921;43.214;27.936;2023-02-15T03:26:53;102267.66;;;6.88;63.21
9764;BME280;4921;43.214;27.936;2023-02-15T03:29:25;102267.97;;;6.81;63.81
9764;BME280;4921;43.214;27.936;2023-02-15T03:31:56;102262.59;;;6.84;63.78
9764;BME280;4921;43.214;27.936;2023-02-15T03:34:26;102282.97;;;6.76;64.24
9764;BME280;4921;43.214;27.936;2023-02-15T03:36:58;102289.28;;;6.70;64.80
9764;BME280;4921;43.214;27.936;2023-02-15T03:39:33;102280.56;;;6.70;64.59
9764;BME280;4921;43.214;27.936;2023-02-15T03:42:08;102282.41;;;6.68;64.90
9764;BME280;4921;43.214;27.936;2023-02-15T03:44:42;102276.16;;;6.72;64.89
9764;BME280;4921;43.214;27.936;2023-02-15T03:47:16;102281.13;;;6.78;64.61
9764;BME280;4921;43.214;27.936;2023-02-15T03:49:50;102282.97;;;6.53;66.30
9764;BME280;4921;43.214;27.936;2023-02-15T03:52:21;102295.78;;;6.59;66.27
9764;BME280;4921;43.214;27.936;2023-02-15T03:54:48;102290.34;;;6.65;65.97
9764;BME280;4921;43.214;27.936;2023-02-15T03:57:19;102302.44;;;6.67;65.88
9764;BME280;4921;43.214;27.936;2023-02-15T04:00:08;102295.72;;;6.60;66.15
9764;BME280;4921;43.214;27.936;2023-02-15T04:03:17;102286.38;;;6.55;66.16
9764;BME280;4921;43.214;27.936;2023-02-15T04:05:47;102291.69;;;6.52;66.39
9764;BME280;4921;43.214;27.936;2023-02-15T04:08:16;102295.41;;;6.69;65.98
9764;BME280;4921;43.214;27.936;2023-02-15T04:10:43;102296.34;;;6.67;65.70
9764;BME280;4921;43.214;27.936;2023-02-15T04:13:18;102292.22;;;6.61;66.42
9764;BME280;4921;43.214;27.936;2023-02-15T04:15:45;102299.19;;;6.61;66.41
9764;BME280;4921;43.214;27.936;2023-02-15T04:18:29;102312.72;;;6.49;66.47
9764;BME280;4921;43.214;27.936;2023-02-15T04:21:14;102306.88;;;6.65;66.26
9764;BME280;4921;43.214;27.936;2023-02-15T04:24:00;102307.38;;;6.52;66.67
9764;BME280;4921;43.214;27.936;2023-02-15T04:26:44;102304.81;;;6.50;66.90
9764;BME280;4921;43.214;27.936;2023-02-15T04:29:13;102312.19;;;6.64;66.17
9764;BME280;4921;43.214;27.936;2023-02-15T04:31:40;102316.16;;;6.49;67.11
9764;BME280;4921;43.214;27.936;2023-02-15T04:34:08;102318.75;;;6.51;67.20
9764;BME280;4921;43.214;27.936;2023-02-15T04:36:35;102328.06;;;6.58;67.19
9764;BME280;4921;43.214;27.936;2023-02-15T04:39:04;102315.44;;;6.69;66.54
9764;BME280;4921;43.214;27.936;2023-02-15T04:41:31;102331.28;;;6.66;66.29
9764;BME280;4921;43.214;27.936;2023-02-15T04:43:58;102327.38;;;6.53;67.09
9764;BME280;4921;43.214;27.936;2023-02-15T04:46:26;102325.44;;;6.58;66.81
9764;BME280;4921;43.214;27.936;2023-02-15T04:48:53;102317.81;;;6.52;66.61
9764;BME280;4921;43.214;27.936;2023-02-15T04:51:20;102336.38;;;6.69;66.26
9764;BME280;4921;43.214;27.936;2023-02-15T04:53:47;102336.81;;;6.57;66.69
9764;BME280;4921;43.214;27.936;2023-02-15T04:56:15;102343.78;;;6.56;67.24
9764;BME280;4921;43.214;27.936;2023-02-15T04:58:42;102344.81;;;6.52;67.09
9764;BME280;4921;43.214;27.936;2023-02-15T05:01:09;102349.34;;;6.47;67.10
9764;BME280;4921;43.214;27.936;2023-02-15T05:03:37;102362.41;;;6.47;67.42
9764;BME280;4921;43.214;27.936;2023-02-15T05:06:04;102359.00;;;6.45;67.47
9764;BME280;4921;43.214;27.936;2023-02-15T05:08:31;102367.06;;;6.39;67.54
9764;BME280;4921;43.214;27.936;2023-02-15T05:11:01;102366.41;;;6.33;68.20
9764;BME280;4921;43.214;27.936;2023-02-15T05:13:30;102378.56;;;6.34;68.30
9764;BME280;4921;43.214;27.936;2023-02-15T05:15:57;102375.59;;;6.44;67.58
9764;BME280;4921;43.214;27.936;2023-02-15T05:18:24;102379.69;;;6.51;67.26
9764;BME280;4921;43.214;27.936;2023-02-15T05:20:51;102380.03;;;6.42;67.78
9764;BME280;4921;43.214;27.936;2023-02-15T05:23:17;102381.19;;;6.34;67.92
9764;BME280;4921;43.214;27.936;2023-02-15T05:25:47;102387.06;;;6.40;67.85
9764;BME280;4921;43.214;27.936;2023-02-15T05:28:33;102390.47;;;6.42;67.79
9764;BME280;4921;43.214;27.936;2023-02-15T05:31:04;102394.84;;;6.42;67.57
9764;BME280;4921;43.214;27.936;2023-02-15T05:33:31;102375.69;;;6.15;68.03
9764;BME280;4921;43.214;27.936;2023-02-15T05:35:59;102393.44;;;6.32;68.36
9764;BME280;4921;43.214;27.936;2023-02-15T05:38:26;102389.91;;;6.33;68.11
9764;BME280;4921;43.214;27.936;2023-02-15T05:40:53;102396.34;;;6.49;67.73
9764;BME280;4921;43.214;27.936;2023-02-15T05:43:20;102400.78;;;6.47;67.73
9764;BME280;4921;43.214;27.936;2023-02-15T05:45:50;102406.19;;;6.41;67.96
9764;BME280;4921;43.214;27.936;2023-02-15T05:48:18;102415.81;;;6.40;68.20
9764;BME280;4921;43.214;27.936;2023-02-15T05:50:45;102420.97;;;6.42;68.29
9764;BME280;4921;43.214;27.936;2023-02-15T05:53:13;102414.66;;;6.47;68.06
9764;BME280;4921;43.214;27.936;2023-02-15T05:55:40;102419.81;;;6.50;68.33
9764;BME280;4921;43.214;27.936;2023-02-15T05:58:07;102426.84;;;6.48;68.14
9764;BME280;4921;43.214;27.936;2023-02-15T06:00:34;102410.16;;;6.52;68.25
9764;BME280;4921;43.214;27.936;2023-02-15T06:03:03;102414.22;;;6.61;67.65
9764;BME280;4921;43.214;27.936;2023-02-15T06:05:30;102424.88;;;6.55;68.08
9764;BME280;4921;43.214;27.936;2023-02-15T06:07:56;102437.72;;;6.61;67.67
9764;BME280;4921;43.214;27.936;2023-02-15T06:10:23;102421.19;;;6.60;68.04
9764;BME280;4921;43.214;27.936;2023-02-15T06:12:50;102431.56;;;6.63;67.74
9764;BME280;4921;43.214;27.936;2023-02-15T06:15:17;102435.03;;;6.64;67.19
9764;BME280;4921;43.214;27.936;2023-02-15T06:17:44;102438.44;;;6.66;67.26
9764;BME280;4921;43.214;27.936;2023-02-15T06:20:13;102441.72;;;6.71;67.07
9764;BME280;4921;43.214;27.936;2023-02-15T06:22:40;102447.75;;;6.73;66.89
9764;BME280;4921;43.214;27.936;2023-02-15T06:25:07;102447.66;;;6.76;67.10
9764;BME280;4921;43.214;27.936;2023-02-15T06:27:36;102437.91;;;6.81;67.06
9764;BME280;4921;43.214;27.936;2023-02-15T06:30:05;102432.47;;;6.87;66.78
9764;BME280;4921;43.214;27.936;2023-02-15T06:32:32;102444.28;;;6.97;66.60
9764;BME280;4921;43.214;27.936;2023-02-15T06:34:59;102442.94;;;7.10;66.46
9764;BME280;4921;43.214;27.936;2023-02-15T06:37:27;102444.53;;;7.39;66.20
9764;BME280;4921;43.214;27.936;2023-02-15T06:39:56;102443.78;;;7.58;65.84
9764;BME280;4921;43.214;27.936;2023-02-15T06:42:23;102438.59;;;7.79;63.50
9764;BME280;4921;43.214;27.936;2023-02-15T06:44:50;102443.56;;;8.08;63.00
9764;BME280;4921;43.214;27.936;2023-02-15T06:47:17;102449.28;;;8.17;62.17
9764;BME280;4921;43.214;27.936;2023-02-15T06:49:44;102449.28;;;8.39;60.33
9764;BME280;4921;43.214;27.936;2023-02-15T06:52:11;102442.31;;;8.60;59.54
9764;BME280;4921;43.214;27.936;2023-02-15T06:54:39;102450.44;;;8.74;58.48
9764;BME280;4921;43.214;27.936;2023-02-15T06:57:06;102455.91;;;8.89;58.26
9764;BME280;4921;43.214;27.936;2023-02-15T06:59:35;102454.31;;;9.05;57.14
9764;BME280;4921;43.214;27.936;2023-02-15T07:02:02;102454.44;;;9.23;55.81
9764;BME280;4921;43.214;27.936;2023-02-15T07:04:29;102455.44;;;9.39;56.79
9764;BME280;4921;43.214;27.936;2023-02-15T07:06:56;102446.50;;;9.61;55.85
9764;BME280;4921;43.214;27.936;2023-02-15T07:09:23;102453.25;;;9.85;54.75
9764;BME280;4921;43.214;27.936;2023-02-15T07:11:51;102445.72;;;10.15;53.22
9764;BME280;4921;43.214;27.936;2023-02-15T07:14:36;102458.81;;;10.34;53.04
9764;BME280;4921;43.214;27.936;2023-02-15T07:17:03;102463.41;;;10.47;52.16
9764;BME280;4921;43.214;27.936;2023-02-15T07:19:30;102466.03;;;10.64;51.11
9764;BME280;4921;43.214;27.936;2023-02-15T07:21:57;102465.09;;;10.65;51.10
9764;BME280;4921;43.214;27.936;2023-02-15T07:24:24;102469.66;;;10.62;49.62
9764;BME280;4921;43.214;27.936;2023-02-15T07:26:52;102464.53;;;10.59;50.30
9764;BME280;4921;43.214;27.936;2023-02-15T07:29:19;102467.63;;;10.33;51.14
9764;BME280;4921;43.214;27.936;2023-02-15T07:31:46;102467.00;;;10.28;51.09
9764;BME280;4921;43.214;27.936;2023-02-15T07:34:13;102472.03;;;10.32;51.13
9764;BME280;4921;43.214;27.936;2023-02-15T07:36:41;102483.56;;;10.30;50.63
9764;BME280;4921;43.214;27.936;2023-02-15T07:39:09;102471.56;;;10.24;52.03
9764;BME280;4921;43.214;27.936;2023-02-15T07:41:36;102479.28;;;10.09;52.22
9764;BME280;4921;43.214;27.936;2023-02-15T07:44:04;102472.31;;;10.08;51.62
9764;BME280;4921;43.214;27.936;2023-02-15T07:46:31;102469.41;;;10.14;51.68
9764;BME280;4921;43.214;27.936;2023-02-15T07:48:58;102477.41;;;10.12;52.13
9764;BME280;4921;43.214;27.936;2023-02-15T07:51:25;102469.13;;;10.01;51.78
9764;BME280;4921;43.214;27.936;2023-02-15T07:53:52;102474.91;;;10.09;52.06
9764;BME280;4921;43.214;27.936;2023-02-15T07:56:19;102474.03;;;10.27;51.86
9764;BME280;4921;43.214;27.936;2023-02-15T07:58:46;102465.44;;;10.24;51.39
9764;BME280;4921;43.214;27.936;2023-02-15T08:01:24;102462.41;;;10.50;50.81
9764;BME280;4921;43.214;27.936;2023-02-15T08:03:52;102462.75;;;10.77;50.05
9764;BME280;4921;43.214;27.936;2023-02-15T08:06:20;102469.81;;;10.76;49.49
9764;BME280;4921;43.214;27.936;2023-02-15T08:08:47;102464.03;;;10.87;48.63
9764;BME280;4921;43.214;27.936;2023-02-15T08:11:17;102457.03;;;11.03;47.41
9764;BME280;4921;43.214;27.936;2023-02-15T08:13:59;102459.44;;;10.90;48.19
9764;BME280;4921;43.214;27.936;2023-02-15T08:16:31;102456.91;;;10.89;48.00
9764;BME280;4921;43.214;27.936;2023-02-15T08:19:01;102470.97;;;10.88;48.04
9764;BME280;4921;43.214;27.936;2023-02-15T08:21:29;102470.59;;;10.95;47.80
9764;BME280;4921;43.214;27.936;2023-02-15T08:23:57;102453.78;;;10.63;47.95
9764;BME280;4921;43.214;27.936;2023-02-15T08:26:25;102465.31;;;10.61;48.31
9764;BME280;4921;43.214;27.936;2023-02-15T08:28:53;102476.09;;;10.56;47.75
9764;BME280;4921;43.214;27.936;2023-02-15T08:31:21;102468.09;;;10.41;49.29
9764;BME280;4921;43.214;27.936;2023-02-15T08:33:52;102471.06;;;10.52;49.04
9764;BME280;4921;43.214;27.936;2023-02-15T08:36:21;102448.38;;;10.49;47.88
9764;BME280;4921;43.214;27.936;2023-02-15T08:38:48;102475.16;;;10.74;47.80
9764;BME280;4921;43.214;27.936;2023-02-15T08:41:17;102482.03;;;10.77;48.14
9764;BME280;4921;43.214;27.936;2023-02-15T08:43:45;102462.53;;;10.81;48.45
9764;BME280;4921;43.214;27.936;2023-02-15T08:46:14;102481.69;;;10.85;47.58
9764;BME280;4921;43.214;27.936;2023-02-15T08:48:42;102499.00;;;10.71;46.94
9764;BME280;4921;43.214;27.936;2023-02-15T08:51:13;102492.97;;;10.69;46.13
9764;BME280;4921;43.214;27.936;2023-02-15T08:53:42;102478.72;;;10.73;45.64
9764;BME280;4921;43.214;27.936;2023-02-15T08:56:10;102469.28;;;10.69;45.78
9764;BME280;4921;43.214;27.936;2023-02-15T08:58:37;102488.41;;;10.73;45.92
9764;BME280;4921;43.214;27.936;2023-02-15T09:01:09;102468.34;;;10.70;46.00
9764;BME280;4921;43.214;27.936;2023-02-15T09:03:37;102474.00;;;10.80;46.00
9764;BME280;4921;43.214;27.936;2023-02-15T09:06:05;102476.00;;;10.92;47.34
9764;BME280;4921;43.214;27.936;2023-02-15T09:08:33;102455.94;;;10.90;46.23
9764;BME280;4921;43.214;27.936;2023-02-15T09:11:09;102477.66;;;10.78;45.00
9764;BME280;4921;43.214;27.936;2023-02-15T09:13:37;102465.03;;;10.84;44.64
9764;BME280;4921;43.214;27.936;2023-02-15T09:16:06;102450.69;;;10.90;45.10
9764;BME280;4921;43.214;27.936;2023-02-15T09:18:35;102472.47;;;10.93;45.44
9764;BME280;4921;43.214;27.936;2023-02-15T09:21:04;102462.53;;;10.98;44.39
9764;BME280;4921;43.214;27.936;2023-02-15T09:23:33;102445.28;;;10.76;44.52
9764;BME280;4921;43.214;27.936;2023-02-15T09:26:09;102468.66;;;10.82;44.64
9764;BME280;4921;43.214;27.936;2023-02-15T09:28:36;102469.19;;;10.54;45.21
9764;BME280;4921;43.214;27.936;2023-02-15T09:31:07;102456.03;;;10.37;45.48
9764;BME280;4921;43.214;27.936;2023-02-15T09:33:35;102450.28;;;10.29;45.75
9764;BME280;4921;43.214;27.936;2023-02-15T09:36:03;102459.66;;;10.34;45.21
9764;BME280;4921;43.214;27.936;2023-02-15T09:41:22;102465.06;;;10.31;45.96
9764;BME280;4921;43.214;27.936;2023-02-15T09:44:02;102464.69;;;10.39;46.06
9764;BME280;4921;43.214;27.936;2023-02-15T09:46:42;102462.84;;;10.41;46.11
9764;BME280;4921;43.214;27.936;2023-02-15T09:49:21;102452.84;;;10.30;46.65
9764;BME280;4921;43.214;27.936;2023-02-15T09:57:10;102443.22;;;10.65;45.33
9764;BME280;4921;43.214;27.936;2023-02-15T09:59:47;102447.75;;;10.61;44.35
9764;BME280;4921;43.214;27.936;2023-02-15T10:02:32;102443.44;;;10.60;44.17
9764;BME280;4921;43.214;27.936;2023-02-15T10:05:13;102440.56;;;10.65;44.39
9764;BME280;4921;43.214;27.936;2023-02-15T10:07:58;102429.28;;;10.63;44.46
9764;BME280;4921;43.214;27.936;2023-02-15T10:10:34;102434.13;;;10.88;44.03
9764;BME280;4921;43.214;27.936;2023-02-15T10:13:26;102440.41;;;10.68;44.56
9764;BME280;4921;43.214;27.936;2023-02-15T10:16:07;102438.72;;;10.67;43.65
9764;BME280;4921;43.214;27.936;2023-02-15T10:18:51;102435.53;;;10.60;44.06
9764;BME280;4921;43.214;27.936;2023-02-15T10:21:27;102421.28;;;10.82;44.51
9764;BME280;4921;43.214;27.936;2023-02-15T10:31:37;102414.09;;;11.18;42.57
9764;BME280;4921;43.214;27.936;2023-02-15T10:37:05;102402.56;;;11.36;42.12
9764;BME280;4921;43.214;27.936;2023-02-15T10:42:23;102410.88;;;11.28;42.06
9764;BME280;4921;43.214;27.936;2023-02-15T10:47:40;102411.06;;;11.41;41.54
9764;BME280;4921;43.214;27.936;2023-02-15T10:50:30;102408.03;;;11.64;41.66
9764;BME280;4921;43.214;27.936;2023-02-15T10:53:13;102403.72;;;11.79;41.20
9764;BME280;4921;43.214;27.936;2023-02-15T10:55:50;102390.69;;;11.91;40.90
9764;BME280;4921;43.214;27.936;2023-02-15T10:58:28;102398.75;;;12.04;41.27
9764;BME280;4921;43.214;27.936;2023-02-15T11:01:02;102394.53;;;12.31;39.07
9764;BME280;4921;43.214;27.936;2023-02-15T11:03:47;102397.00;;;12.18;39.60
9764;BME280;4921;43.214;27.936;2023-02-15T11:08:48;102397.22;;;12.15;40.37
9764;BME280;4921;43.214;27.936;2023-02-15T11:16:31;102402.66;;;12.42;39.30
9764;BME280;4921;43.214;27.936;2023-02-15T11:19:05;102398.19;;;12.29;39.09
9764;BME280;4921;43.214;27.936;2023-02-15T11:21:36;102395.19;;;12.35;39.53
9764;BME280;4921;43.214;27.936;2023-02-15T11:24:10;102388.19;;;12.19;39.23
9764;BME280;4921;43.214;27.936;2023-02-15T11:26:41;102401.47;;;12.18;39.00
9764;BME280;4921;43.214;27.936;2023-02-15T11:31:44;102397.97;;;12.17;39.78
9764;BME280;4921;43.214;27.936;2023-02-15T11:34:18;102397.09;;;12.17;38.90
9764;BME280;4921;43.214;27.936;2023-02-15T11:36:50;102387.78;;;12.11;39.24
9764;BME280;4921;43.214;27.936;2023-02-15T11:39:19;102402.50;;;12.00;38.95
9764;BME280;4921;43.214;27.936;2023-02-15T11:41:50;102392.81;;;12.00;38.84
9764;BME280;4921;43.214;27.936;2023-02-15T11:44:21;102394.75;;;11.97;39.05
9764;BME280;4921;43.214;27.936;2023-02-15T11:46:50;102393.50;;;11.88;39.56
9764;BME280;4921;43.214;27.936;2023-02-15T11:49:24;102398.25;;;11.82;39.80
9764;BME280;4921;43.214;27.936;2023-02-15T11:51:53;102400.13;;;11.80;39.67
9764;BME280;4921;43.214;27.936;2023-02-15T11:54:26;102382.38;;;11.83;39.93
9764;BME280;4921;43.214;27.936;2023-02-15T11:56:55;102383.31;;;11.67;39.77
9764;BME280;4921;43.214;27.936;2023-02-15T11:59:28;102368.75;;;11.60;39.80
9764;BME280;4921;43.214;27.936;2023-02-15T12:01:56;102389.22;;;11.55;39.98
9764;BME280;4921;43.214;27.936;2023-02-15T12:04:29;102382.06;;;11.41;40.06
9764;BME280;4921;43.214;27.936;2023-02-15T12:07:00;102358.53;;;11.22;39.76
9764;BME280;4921;43.214;27.936;2023-02-15T12:09:31;102382.66;;;11.15;40.06
9764;BME280;4921;43.214;27.936;2023-02-15T12:12:20;102376.09;;;11.06;41.28
9764;BME280;4921;43.214;27.936;2023-02-15T12:14:51;102375.00;;;11.10;41.05
9764;BME280;4921;43.214;27.936;2023-02-15T12:17:21;102371.63;;;11.08;40.66
9764;BME280;4921;43.214;27.936;2023-02-15T12:19:52;102364.25;;;11.15;40.71
9764;BME280;4921;43.214;27.936;2023-02-15T12:22:24;102360.91;;;11.11;41.52
9764;BME280;4921;43.214;27.936;2023-02-15T12:24:54;102352.41;;;11.22;41.12
9764;BME280;4921;43.214;27.936;2023-02-15T12:27:24;102353.88;;;11.27;40.11
9764;BME280;4921;43.214;27.936;2023-02-15T12:29:55;102353.44;;;11.35;39.87
9764;BME280;4921;43.214;27.936;2023-02-15T12:32:25;102358.38;;;11.41;40.36
9764;BME280;4921;43.214;27.936;2023-02-15T12:34:58;102343.41;;;11.41;40.30
9764;BME280;4921;43.214;27.936;2023-02-15T12:37:29;102351.34;;;11.73;39.42
9764;BME280;4921;43.214;27.936;2023-02-15T12:39:58;102357.88;;;11.81;39.55
9764;BME280;4921;43.214;27.936;2023-02-15T12:42:26;102363.22;;;11.80;39.13
9764;BME280;4921;43.214;27.936;2023-02-15T12:44:57;102350.53;;;11.86;38.78
9764;BME280;4921;43.214;27.936;2023-02-15T12:47:25;102351.25;;;11.90;38.20
9764;BME280;4921;43.214;27.936;2023-02-15T12:50:22;102350.59;;;11.71;38.38
9764;BME280;4921;43.214;27.936;2023-02-15T12:53:06;102347.41;;;11.64;38.84
9764;BME280;4921;43.214;27.936;2023-02-15T12:55:34;102349.19;;;11.64;39.03
9764;BME280;4921;43.214;27.936;2023-02-15T12:58:06;102362.06;;;11.70;39.06
9764;BME280;4921;43.214;27.936;2023-02-15T13:00:33;102352.03;;;11.76;38.75
9764;BME280;4921;43.214;27.936;2023-02-15T13:03:01;102356.69;;;11.71;38.60
9764;BME280;4921;43.214;27.936;2023-02-15T13:05:33;102361.72;;;11.44;39.22
9764;BME280;4921;43.214;27.936;2023-02-15T13:08:03;102351.91;;;11.31;40.00
9764;BME280;4921;43.214;27.936;2023-02-15T13:10:37;102356.59;;;11.10;40.44
9764;BME280;4921;43.214;27.936;2023-02-15T13:13:10;102356.59;;;11.10;40.86
9764;BME280;4921;43.214;27.936;2023-02-15T13:15:40;102362.63;;;11.12;40.84
9764;BME280;4921;43.214;27.936;2023-02-15T13:18:12;102350.66;;;10.90;41.15
9764;BME280;4921;43.214;27.936;2023-02-15T13:20:44;102354.59;;;10.98;41.32
9764;BME280;4921;43.214;27.936;2023-02-15T13:23:22;102331.13;;;10.94;41.41
9764;BME280;4921;43.214;27.936;2023-02-15T13:25:54;102346.44;;;11.03;41.52
9764;BME280;4921;43.214;27.936;2023-02-15T13:28:25;102348.47;;;10.98;41.61
9764;BME280;4921;43.214;27.936;2023-02-15T13:30:54;102357.56;;;10.92;41.96
9764;BME280;4921;43.214;27.936;2023-02-15T13:33:26;102355.59;;;10.96;42.18
9764;BME280;4921;43.214;27.936;2023-02-15T13:36:04;102347.22;;;11.05;42.22
9764;BME280;4921;43.214;27.936;2023-02-15T13:38:47;102351.91;;;11.00;42.19
9764;BME280;4921;43.214;27.936;2023-02-15T13:41:19;102346.28;;;11.06;42.35
9764;BME280;4921;43.214;27.936;2023-02-15T13:43:53;102347.34;;;10.86;42.73
9764;BME280;4921;43.214;27.936;2023-02-15T13:46:34;102344.72;;;10.86;42.99
9764;BME280;4921;43.214;27.936;2023-02-15T13:49:17;102342.13;;;11.02;42.13
9764;BME280;4921;43.214;27.936;2023-02-15T13:51:57;102353.66;;;10.99;42.46
9764;BME280;4921;43.214;27.936;2023-02-15T13:54:51;102358.22;;;10.96;42.73
9764;BME280;4921;43.214;27.936;2023-02-15T13:57:44;102352.38;;;10.91;42.64
9764;BME280;4921;43.214;27.936;2023-02-15T14:00:20;102346.41;;;10.87;42.92
9764;BME280;4921;43.214;27.936;2023-02-15T14:03:02;102352.28;;;10.92;42.71
9764;BME280;4921;43.214;27.936;2023-02-15T14:05:50;102344.97;;;10.82;42.94
9764;BME280;4921;43.214;27.936;2023-02-15T14:08:33;102348.13;;;10.88;43.22